sensor_id;sensor_type;location;lat;lon;timestamp;P1;P2;P0
48893;PMS5003;34710;35.798;139.446;2022-12-10T00:01:45;25;25;
48893;PMS5003;34710;35.798;139.446;2022-12-10T00:04:15;26;26;
48893;PMS5003;34710;35.798;139.446;2022-12-10T00:06:45;24;24;
48893;PMS5003;34710;35.798;139.446;2022-12-10T00:09:15;28;21;
48893;PMS5003;34710;35.798;139.446;2022-12-10T00:11:46;23;23;
48893;PMS5003;34710;35.798;139.446;2022-12-10T00:14:15;25;23;
48893;PMS5003;34710;35.798;139.446;2022-12-10T00:16:44;36;20;
48893;PMS5003;34710;35.798;139.446;2022-12-10T00:19:13;23;23;
48893;PMS5003;34710;35.798;139.446;2022-12-10T00:21:42;35;21;
48893;PMS5003;34710;35.798;139.446;2022-12-10T00:24:12;20;17;
48893;PMS5003;34710;35.798;139.446;2022-12-10T00:26:41;23;21;
48893;PMS5003;34710;35.798;139.446;2022-12-10T00:29:11;23;18;
48893;PMS5003;34710;35.798;139.446;2022-12-10T00:31:40;25;24;
48893;PMS5003;34710;35.798;139.446;2022-12-10T00:34:10;30;21;
48893;PMS5003;34710;35.798;139.446;2022-12-10T00:36:41;26;22;
48893;PMS5003;34710;35.798;139.446;2022-12-10T00:39:13;22;22;
48893;PMS5003;34710;35.798;139.446;2022-12-10T00:41:44;20;20;
48893;PMS5003;34710;35.798;139.446;2022-12-10T00:44:13;23;21;
48893;PMS5003;34710;35.798;139.446;2022-12-10T00:46:42;23;15;
48893;PMS5003;34710;35.798;139.446;2022-12-10T00:49:12;27;19;
48893;PMS5003;34710;35.798;139.446;2022-12-10T00:51:42;22;20;
48893;PMS5003;34710;35.798;139.446;2022-12-10T00:54:11;16;16;
48893;PMS5003;34710;35.798;139.446;2022-12-10T00:56:40;18;18;
48893;PMS5003;34710;35.798;139.446;2022-12-10T00:59:10;20;18;
48893;PMS5003;34710;35.798;139.446;2022-12-10T01:01:40;20;17;
48893;PMS5003;34710;35.798;139.446;2022-12-10T01:04:12;27;20;
48893;PMS5003;34710;35.798;139.446;2022-12-10T01:06:43;21;20;
48893;PMS5003;34710;35.798;139.446;2022-12-10T01:09:14;18;16;
48893;PMS5003;34710;35.798;139.446;2022-12-10T01:11:45;20;14;
48893;PMS5003;34710;35.798;139.446;2022-12-10T01:14:17;22;20;
48893;PMS5003;34710;35.798;139.446;2022-12-10T01:16:48;16;16;
48893;PMS5003;34710;35.798;139.446;2022-12-10T01:19:20;18;15;
48893;PMS5003;34710;35.798;139.446;2022-12-10T01:21:50;17;16;
48893;PMS5003;34710;35.798;139.446;2022-12-10T01:24:20;13;12;
48893;PMS5003;34710;35.798;139.446;2022-12-10T01:26:50;21;19;
48893;PMS5003;34710;35.798;139.446;2022-12-10T01:29:20;17;16;
48893;PMS5003;34710;35.798;139.446;2022-12-10T01:31:51;17;13;
48893;PMS5003;34710;35.798;139.446;2022-12-10T01:34:22;15;15;
48893;PMS5003;34710;35.798;139.446;2022-12-10T01:36:52;17;16;
48893;PMS5003;34710;35.798;139.446;2022-12-10T01:39:22;15;13;
48893;PMS5003;34710;35.798;139.446;2022-12-10T01:41:52;16;14;
48893;PMS5003;34710;35.798;139.446;2022-12-10T01:44:59;15;14;
48893;PMS5003;34710;35.798;139.446;2022-12-10T01:47:33;14;11;
48893;PMS5003;34710;35.798;139.446;2022-12-10T01:50:04;15;14;
48893;PMS5003;34710;35.798;139.446;2022-12-10T01:52:35;17;15;
48893;PMS5003;34710;35.798;139.446;2022-12-10T01:55:08;16;15;
48893;PMS5003;34710;35.798;139.446;2022-12-10T01:58:04;12;12;
48893;PMS5003;34710;35.798;139.446;2022-12-10T02:00:34;15;14;
48893;PMS5003;34710;35.798;139.446;2022-12-10T02:03:25;19;16;
48893;PMS5003;34710;35.798;139.446;2022-12-10T02:06:03;17;14;
48893;PMS5003;34710;35.798;139.446;2022-12-10T02:08:39;14;14;
48893;PMS5003;34710;35.798;139.446;2022-12-10T02:11:16;14;14;
48893;PMS5003;34710;35.798;139.446;2022-12-10T02:13:52;16;13;
48893;PMS5003;34710;35.798;139.446;2022-12-10T02:16:31;20;16;
48893;PMS5003;34710;35.798;139.446;2022-12-10T02:19:07;20;18;
48893;PMS5003;34710;35.798;139.446;2022-12-10T02:21:44;20;18;
48893;PMS5003;34710;35.798;139.446;2022-12-10T02:24:19;18;16;
48893;PMS5003;34710;35.798;139.446;2022-12-10T02:26:57;22;19;
48893;PMS5003;34710;35.798;139.446;2022-12-10T02:29:32;19;17;
48893;PMS5003;34710;35.798;139.446;2022-12-10T02:32:05;21;19;
48893;PMS5003;34710;35.798;139.446;2022-12-10T02:34:42;23;19;
48893;PMS5003;34710;35.798;139.446;2022-12-10T02:37:16;16;14;
48893;PMS5003;34710;35.798;139.446;2022-12-10T02:39:51;15;14;
48893;PMS5003;34710;35.798;139.446;2022-12-10T02:42:25;12;12;
48893;PMS5003;34710;35.798;139.446;2022-12-10T02:44:57;18;13;
48893;PMS5003;34710;35.798;139.446;2022-12-10T02:47:28;13;12;
48893;PMS5003;34710;35.798;139.446;2022-12-10T02:49:58;27;14;
48893;PMS5003;34710;35.798;139.446;2022-12-10T02:52:28;13;12;
48893;PMS5003;34710;35.798;139.446;2022-12-10T02:54:57;17;12;
48893;PMS5003;34710;35.798;139.446;2022-12-10T02:57:28;12;12;
48893;PMS5003;34710;35.798;139.446;2022-12-10T03:00:06;18;14;
48893;PMS5003;34710;35.798;139.446;2022-12-10T03:02:40;16;13;
48893;PMS5003;34710;35.798;139.446;2022-12-10T03:05:22;17;17;
48893;PMS5003;34710;35.798;139.446;2022-12-10T03:07:58;12;12;
48893;PMS5003;34710;35.798;139.446;2022-12-10T03:10:37;16;14;
48893;PMS5003;34710;35.798;139.446;2022-12-10T03:13:16;13;12;
48893;PMS5003;34710;35.798;139.446;2022-12-10T03:15:48;16;15;
48893;PMS5003;34710;35.798;139.446;2022-12-10T03:18:21;15;13;
48893;PMS5003;34710;35.798;139.446;2022-12-10T03:20:54;12;12;
48893;PMS5003;34710;35.798;139.446;2022-12-10T03:23:29;16;12;
48893;PMS5003;34710;35.798;139.446;2022-12-10T03:26:00;10;10;
48893;PMS5003;34710;35.798;139.446;2022-12-10T03:28:31;15;11;
48893;PMS5003;34710;35.798;139.446;2022-12-10T03:31:05;12;11;
48893;PMS5003;34710;35.798;139.446;2022-12-10T03:33:37;11;10;
48893;PMS5003;34710;35.798;139.446;2022-12-10T03:36:07;9;9;
48893;PMS5003;34710;35.798;139.446;2022-12-10T03:38:38;20;9;
48893;PMS5003;34710;35.798;139.446;2022-12-10T03:41:09;11;9;
48893;PMS5003;34710;35.798;139.446;2022-12-10T03:43:49;13;10;
48893;PMS5003;34710;35.798;139.446;2022-12-10T03:46:21;8;8;
48893;PMS5003;34710;35.798;139.446;2022-12-10T03:48:51;10;8;
48893;PMS5003;34710;35.798;139.446;2022-12-10T03:51:21;7;7;
48893;PMS5003;34710;35.798;139.446;2022-12-10T03:53:50;9;6;
48893;PMS5003;34710;35.798;139.446;2022-12-10T03:56:19;8;7;
48893;PMS5003;34710;35.798;139.446;2022-12-10T03:58:49;9;7;
48893;PMS5003;34710;35.798;139.446;2022-12-10T04:01:18;10;8;
48893;PMS5003;34710;35.798;139.446;2022-12-10T04:03:48;7;7;
48893;PMS5003;34710;35.798;139.446;2022-12-10T04:06:18;9;6;
48893;PMS5003;34710;35.798;139.446;2022-12-10T04:08:48;9;7;
48893;PMS5003;34710;35.798;139.446;2022-12-10T04:11:19;9;7;
48893;PMS5003;34710;35.798;139.446;2022-12-10T04:13:49;9;7;
48893;PMS5003;34710;35.798;139.446;2022-12-10T04:16:18;8;6;
48893;PMS5003;34710;35.798;139.446;2022-12-10T04:18:47;10;9;
48893;PMS5003;34710;35.798;139.446;2022-12-10T04:21:17;11;7;
48893;PMS5003;34710;35.798;139.446;2022-12-10T04:23:46;10;9;
48893;PMS5003;34710;35.798;139.446;2022-12-10T04:26:16;11;9;
48893;PMS5003;34710;35.798;139.446;2022-12-10T04:28:45;10;9;
48893;PMS5003;34710;35.798;139.446;2022-12-10T04:31:15;5;4;
48893;PMS5003;34710;35.798;139.446;2022-12-10T04:33:44;10;6;
48893;PMS5003;34710;35.798;139.446;2022-12-10T04:36:14;6;6;
48893;PMS5003;34710;35.798;139.446;2022-12-10T04:38:43;8;6;
48893;PMS5003;34710;35.798;139.446;2022-12-10T04:41:13;9;5;
48893;PMS5003;34710;35.798;139.446;2022-12-10T04:43:42;5;4;
48893;PMS5003;34710;35.798;139.446;2022-12-10T04:46:12;4;4;
48893;PMS5003;34710;35.798;139.446;2022-12-10T04:48:41;6;6;
48893;PMS5003;34710;35.798;139.446;2022-12-10T04:51:10;5;5;
48893;PMS5003;34710;35.798;139.446;2022-12-10T04:53:40;5;5;
48893;PMS5003;34710;35.798;139.446;2022-12-10T04:56:09;7;5;
48893;PMS5003;34710;35.798;139.446;2022-12-10T04:58:39;5;5;
48893;PMS5003;34710;35.798;139.446;2022-12-10T05:01:10;6;6;
48893;PMS5003;34710;35.798;139.446;2022-12-10T05:03:40;6;4;
48893;PMS5003;34710;35.798;139.446;2022-12-10T05:06:10;6;6;
48893;PMS5003;34710;35.798;139.446;2022-12-10T05:08:41;7;6;
48893;PMS5003;34710;35.798;139.446;2022-12-10T05:11:12;8;7;
48893;PMS5003;34710;35.798;139.446;2022-12-10T05:13:43;4;4;
48893;PMS5003;34710;35.798;139.446;2022-12-10T05:16:13;8;7;
48893;PMS5003;34710;35.798;139.446;2022-12-10T05:18:43;6;6;
48893;PMS5003;34710;35.798;139.446;2022-12-10T05:21:14;7;7;
48893;PMS5003;34710;35.798;139.446;2022-12-10T05:23:46;6;6;
48893;PMS5003;34710;35.798;139.446;2022-12-10T05:26:17;8;7;
48893;PMS5003;34710;35.798;139.446;2022-12-10T05:28:48;7;6;
48893;PMS5003;34710;35.798;139.446;2022-12-10T05:31:19;9;8;
48893;PMS5003;34710;35.798;139.446;2022-12-10T05:33:51;7;7;
48893;PMS5003;34710;35.798;139.446;2022-12-10T05:36:23;6;6;
48893;PMS5003;34710;35.798;139.446;2022-12-10T05:38:54;5;5;
48893;PMS5003;34710;35.798;139.446;2022-12-10T05:41:25;6;6;
48893;PMS5003;34710;35.798;139.446;2022-12-10T05:43:56;5;5;
48893;PMS5003;34710;35.798;139.446;2022-12-10T05:46:27;8;7;
48893;PMS5003;34710;35.798;139.446;2022-12-10T05:48:58;7;7;
48893;PMS5003;34710;35.798;139.446;2022-12-10T05:51:29;7;5;
48893;PMS5003;34710;35.798;139.446;2022-12-10T05:54:02;8;7;
48893;PMS5003;34710;35.798;139.446;2022-12-10T05:56:32;6;6;
48893;PMS5003;34710;35.798;139.446;2022-12-10T05:59:02;8;7;
48893;PMS5003;34710;35.798;139.446;2022-12-10T06:01:33;7;5;
48893;PMS5003;34710;35.798;139.446;2022-12-10T06:04:03;8;8;
48893;PMS5003;34710;35.798;139.446;2022-12-10T06:06:33;8;8;
48893;PMS5003;34710;35.798;139.446;2022-12-10T06:09:05;10;7;
48893;PMS5003;34710;35.798;139.446;2022-12-10T06:11:38;8;6;
48893;PMS5003;34710;35.798;139.446;2022-12-10T06:14:08;9;8;
48893;PMS5003;34710;35.798;139.446;2022-12-10T06:16:38;7;5;
48893;PMS5003;34710;35.798;139.446;2022-12-10T06:19:07;6;5;
48893;PMS5003;34710;35.798;139.446;2022-12-10T06:21:36;8;6;
48893;PMS5003;34710;35.798;139.446;2022-12-10T06:24:06;7;5;
48893;PMS5003;34710;35.798;139.446;2022-12-10T06:26:36;8;7;
48893;PMS5003;34710;35.798;139.446;2022-12-10T06:29:05;6;6;
48893;PMS5003;34710;35.798;139.446;2022-12-10T06:31:34;7;7;
48893;PMS5003;34710;35.798;139.446;2022-12-10T06:34:04;8;6;
48893;PMS5003;34710;35.798;139.446;2022-12-10T06:36:34;6;6;
48893;PMS5003;34710;35.798;139.446;2022-12-10T06:39:03;7;7;
48893;PMS5003;34710;35.798;139.446;2022-12-10T06:41:33;8;7;
48893;PMS5003;34710;35.798;139.446;2022-12-10T06:44:06;7;6;
48893;PMS5003;34710;35.798;139.446;2022-12-10T06:46:35;11;8;
48893;PMS5003;34710;35.798;139.446;2022-12-10T06:49:04;17;7;
48893;PMS5003;34710;35.798;139.446;2022-12-10T06:51:34;7;5;
48893;PMS5003;34710;35.798;139.446;2022-12-10T06:54:04;7;7;
48893;PMS5003;34710;35.798;139.446;2022-12-10T06:56:33;8;6;
48893;PMS5003;34710;35.798;139.446;2022-12-10T06:59:04;5;5;
48893;PMS5003;34710;35.798;139.446;2022-12-10T07:01:33;9;6;
48893;PMS5003;34710;35.798;139.446;2022-12-10T07:04:02;6;5;
48893;PMS5003;34710;35.798;139.446;2022-12-10T07:06:32;7;5;
48893;PMS5003;34710;35.798;139.446;2022-12-10T07:09:01;4;3;
48893;PMS5003;34710;35.798;139.446;2022-12-10T07:11:31;5;5;
48893;PMS5003;34710;35.798;139.446;2022-12-10T07:14:00;5;5;
48893;PMS5003;34710;35.798;139.446;2022-12-10T07:16:31;6;5;
48893;PMS5003;34710;35.798;139.446;2022-12-10T07:19:01;4;4;
48893;PMS5003;34710;35.798;139.446;2022-12-10T07:21:31;7;6;
48893;PMS5003;34710;35.798;139.446;2022-12-10T07:24:02;6;5;
48893;PMS5003;34710;35.798;139.446;2022-12-10T07:26:35;8;6;
48893;PMS5003;34710;35.798;139.446;2022-12-10T07:29:06;6;6;
48893;PMS5003;34710;35.798;139.446;2022-12-10T07:31:39;4;4;
48893;PMS5003;34710;35.798;139.446;2022-12-10T07:34:09;10;8;
48893;PMS5003;34710;35.798;139.446;2022-12-10T07:36:38;10;6;
48893;PMS5003;34710;35.798;139.446;2022-12-10T07:39:09;7;5;
48893;PMS5003;34710;35.798;139.446;2022-12-10T07:41:39;9;5;
48893;PMS5003;34710;35.798;139.446;2022-12-10T07:44:09;6;5;
48893;PMS5003;34710;35.798;139.446;2022-12-10T07:46:40;14;8;
48893;PMS5003;34710;35.798;139.446;2022-12-10T07:49:09;8;8;
48893;PMS5003;34710;35.798;139.446;2022-12-10T07:51:38;11;8;
48893;PMS5003;34710;35.798;139.446;2022-12-10T07:54:10;9;8;
48893;PMS5003;34710;35.798;139.446;2022-12-10T07:56:40;8;8;
48893;PMS5003;34710;35.798;139.446;2022-12-10T07:59:09;9;8;
48893;PMS5003;34710;35.798;139.446;2022-12-10T08:01:39;7;7;
48893;PMS5003;34710;35.798;139.446;2022-12-10T08:04:08;11;10;
48893;PMS5003;34710;35.798;139.446;2022-12-10T08:06:38;9;5;
48893;PMS5003;34710;35.798;139.446;2022-12-10T08:09:08;11;10;
48893;PMS5003;34710;35.798;139.446;2022-12-10T08:11:38;11;10;
48893;PMS5003;34710;35.798;139.446;2022-12-10T08:14:07;22;11;
48893;PMS5003;34710;35.798;139.446;2022-12-10T08:16:37;15;12;
48893;PMS5003;34710;35.798;139.446;2022-12-10T08:19:06;15;13;
48893;PMS5003;34710;35.798;139.446;2022-12-10T08:21:36;12;10;
48893;PMS5003;34710;35.798;139.446;2022-12-10T08:24:05;14;9;
48893;PMS5003;34710;35.798;139.446;2022-12-10T08:26:34;18;12;
48893;PMS5003;34710;35.798;139.446;2022-12-10T08:29:03;17;13;
48893;PMS5003;34710;35.798;139.446;2022-12-10T08:31:32;21;14;
48893;PMS5003;34710;35.798;139.446;2022-12-10T08:34:02;14;14;
48893;PMS5003;34710;35.798;139.446;2022-12-10T08:36:31;12;12;
48893;PMS5003;34710;35.798;139.446;2022-12-10T08:39:00;19;14;
48893;PMS5003;34710;35.798;139.446;2022-12-10T08:41:29;18;18;
48893;PMS5003;34710;35.798;139.446;2022-12-10T08:43:58;22;15;
48893;PMS5003;34710;35.798;139.446;2022-12-10T08:46:27;26;19;
48893;PMS5003;34710;35.798;139.446;2022-12-10T08:48:56;18;16;
48893;PMS5003;34710;35.798;139.446;2022-12-10T08:51:26;14;14;
48893;PMS5003;34710;35.798;139.446;2022-12-10T08:53:55;20;15;
48893;PMS5003;34710;35.798;139.446;2022-12-10T08:56:24;28;14;
48893;PMS5003;34710;35.798;139.446;2022-12-10T08:58:53;21;18;
48893;PMS5003;34710;35.798;139.446;2022-12-10T09:01:22;16;13;
48893;PMS5003;34710;35.798;139.446;2022-12-10T09:03:52;17;16;
48893;PMS5003;34710;35.798;139.446;2022-12-10T09:06:22;17;15;
48893;PMS5003;34710;35.798;139.446;2022-12-10T09:08:52;21;18;
48893;PMS5003;34710;35.798;139.446;2022-12-10T09:11:23;19;18;
48893;PMS5003;34710;35.798;139.446;2022-12-10T09:13:54;20;14;
48893;PMS5003;34710;35.798;139.446;2022-12-10T09:16:28;17;16;
48893;PMS5003;34710;35.798;139.446;2022-12-10T09:18:59;22;18;
48893;PMS5003;34710;35.798;139.446;2022-12-10T09:21:30;20;17;
48893;PMS5003;34710;35.798;139.446;2022-12-10T09:23:59;33;18;
48893;PMS5003;34710;35.798;139.446;2022-12-10T09:26:29;19;17;
48893;PMS5003;34710;35.798;139.446;2022-12-10T09:28:58;29;20;
48893;PMS5003;34710;35.798;139.446;2022-12-10T09:31:27;25;20;
48893;PMS5003;34710;35.798;139.446;2022-12-10T09:33:56;26;24;
48893;PMS5003;34710;35.798;139.446;2022-12-10T09:36:26;22;19;
48893;PMS5003;34710;35.798;139.446;2022-12-10T09:38:54;22;17;
48893;PMS5003;34710;35.798;139.446;2022-12-10T09:42:05;21;17;
48893;PMS5003;34710;35.798;139.446;2022-12-10T09:44:49;21;18;
48893;PMS5003;34710;35.798;139.446;2022-12-10T09:47:24;25;21;
48893;PMS5003;34710;35.798;139.446;2022-12-10T09:50:00;20;19;
48893;PMS5003;34710;35.798;139.446;2022-12-10T09:52:39;16;15;
48893;PMS5003;34710;35.798;139.446;2022-12-10T09:55:13;22;20;
48893;PMS5003;34710;35.798;139.446;2022-12-10T09:57:45;21;18;
48893;PMS5003;34710;35.798;139.446;2022-12-10T10:00:19;19;18;
48893;PMS5003;34710;35.798;139.446;2022-12-10T10:02:54;25;21;
48893;PMS5003;34710;35.798;139.446;2022-12-10T10:05:26;22;21;
48893;PMS5003;34710;35.798;139.446;2022-12-10T10:07:57;33;25;
48893;PMS5003;34710;35.798;139.446;2022-12-10T10:10:30;28;22;
48893;PMS5003;34710;35.798;139.446;2022-12-10T10:13:09;28;22;
48893;PMS5003;34710;35.798;139.446;2022-12-10T10:15:44;34;23;
48893;PMS5003;34710;35.798;139.446;2022-12-10T10:18:15;31;22;
48893;PMS5003;34710;35.798;139.446;2022-12-10T10:20:51;29;24;
48893;PMS5003;34710;35.798;139.446;2022-12-10T10:23:21;28;25;
48893;PMS5003;34710;35.798;139.446;2022-12-10T10:25:50;24;22;
48893;PMS5003;34710;35.798;139.446;2022-12-10T10:28:20;22;21;
48893;PMS5003;34710;35.798;139.446;2022-12-10T10:30:51;26;20;
48893;PMS5003;34710;35.798;139.446;2022-12-10T10:33:21;24;21;
48893;PMS5003;34710;35.798;139.446;2022-12-10T10:35:52;23;21;
48893;PMS5003;34710;35.798;139.446;2022-12-10T10:38:25;31;19;
48893;PMS5003;34710;35.798;139.446;2022-12-10T10:40:56;30;20;
48893;PMS5003;34710;35.798;139.446;2022-12-10T10:43:28;21;20;
48893;PMS5003;34710;35.798;139.446;2022-12-10T10:46:02;28;19;
48893;PMS5003;34710;35.798;139.446;2022-12-10T10:48:37;26;18;
48893;PMS5003;34710;35.798;139.446;2022-12-10T10:51:07;36;22;
48893;PMS5003;34710;35.798;139.446;2022-12-10T10:53:43;22;18;
48893;PMS5003;34710;35.798;139.446;2022-12-10T10:56:14;22;21;
48893;PMS5003;34710;35.798;139.446;2022-12-10T10:58:46;21;18;
48893;PMS5003;34710;35.798;139.446;2022-12-10T11:01:19;23;17;
48893;PMS5003;34710;35.798;139.446;2022-12-10T11:03:54;18;17;
48893;PMS5003;34710;35.798;139.446;2022-12-10T11:06:25;20;18;
48893;PMS5003;34710;35.798;139.446;2022-12-10T11:08:57;21;20;
48893;PMS5003;34710;35.798;139.446;2022-12-10T11:11:31;21;20;
48893;PMS5003;34710;35.798;139.446;2022-12-10T11:14:23;25;23;
48893;PMS5003;34710;35.798;139.446;2022-12-10T11:17:00;35;25;
48893;PMS5003;34710;35.798;139.446;2022-12-10T11:19:42;24;22;
48893;PMS5003;34710;35.798;139.446;2022-12-10T11:22:21;27;26;
48893;PMS5003;34710;35.798;139.446;2022-12-10T11:24:54;32;30;
48893;PMS5003;34710;35.798;139.446;2022-12-10T11:27:45;36;25;
48893;PMS5003;34710;35.798;139.446;2022-12-10T11:30:20;38;28;
48893;PMS5003;34710;35.798;139.446;2022-12-10T11:32:57;35;29;
48893;PMS5003;34710;35.798;139.446;2022-12-10T11:35:43;25;24;
48893;PMS5003;34710;35.798;139.446;2022-12-10T11:38:21;29;26;
48893;PMS5003;34710;35.798;139.446;2022-12-10T11:40:57;26;21;
48893;PMS5003;34710;35.798;139.446;2022-12-10T11:43:42;33;26;
48893;PMS5003;34710;35.798;139.446;2022-12-10T11:46:24;38;28;
48893;PMS5003;34710;35.798;139.446;2022-12-10T11:49:11;27;25;
48893;PMS5003;34710;35.798;139.446;2022-12-10T11:51:52;30;28;
48893;PMS5003;34710;35.798;139.446;2022-12-10T11:54:32;20;18;
48893;PMS5003;34710;35.798;139.446;2022-12-10T11:57:14;20;20;
48893;PMS5003;34710;35.798;139.446;2022-12-10T11:59:51;22;19;
48893;PMS5003;34710;35.798;139.446;2022-12-10T12:02:32;33;17;
48893;PMS5003;34710;35.798;139.446;2022-12-10T12:05:21;24;19;
48893;PMS5003;34710;35.798;139.446;2022-12-10T12:08:00;18;16;
48893;PMS5003;34710;35.798;139.446;2022-12-10T12:10:43;23;18;
48893;PMS5003;34710;35.798;139.446;2022-12-10T12:13:20;20;20;
48893;PMS5003;34710;35.798;139.446;2022-12-10T12:15:56;19;17;
48893;PMS5003;34710;35.798;139.446;2022-12-10T12:18:33;19;18;
48893;PMS5003;34710;35.798;139.446;2022-12-10T12:21:11;23;18;
48893;PMS5003;34710;35.798;139.446;2022-12-10T12:23:46;21;19;
48893;PMS5003;34710;35.798;139.446;2022-12-10T12:26:21;20;16;
48893;PMS5003;34710;35.798;139.446;2022-12-10T12:28:55;27;17;
48893;PMS5003;34710;35.798;139.446;2022-12-10T12:31:31;25;17;
48893;PMS5003;34710;35.798;139.446;2022-12-10T12:34:03;21;19;
48893;PMS5003;34710;35.798;139.446;2022-12-10T12:36:41;23;17;
48893;PMS5003;34710;35.798;139.446;2022-12-10T12:39:13;18;16;
48893;PMS5003;34710;35.798;139.446;2022-12-10T12:41:53;18;16;
48893;PMS5003;34710;35.798;139.446;2022-12-10T12:44:33;18;17;
48893;PMS5003;34710;35.798;139.446;2022-12-10T12:47:15;22;19;
48893;PMS5003;34710;35.798;139.446;2022-12-10T12:49:50;18;17;
48893;PMS5003;34710;35.798;139.446;2022-12-10T12:52:25;21;17;
48893;PMS5003;34710;35.798;139.446;2022-12-10T12:55:03;17;15;
48893;PMS5003;34710;35.798;139.446;2022-12-10T12:57:41;18;15;
48893;PMS5003;34710;35.798;139.446;2022-12-10T13:00:16;24;21;
48893;PMS5003;34710;35.798;139.446;2022-12-10T13:02:48;23;19;
48893;PMS5003;34710;35.798;139.446;2022-12-10T13:05:28;26;18;
48893;PMS5003;34710;35.798;139.446;2022-12-10T13:08:32;25;22;
48893;PMS5003;34710;35.798;139.446;2022-12-10T13:11:16;34;19;
48893;PMS5003;34710;35.798;139.446;2022-12-10T13:14:12;21;20;
48893;PMS5003;34710;35.798;139.446;2022-12-10T13:16:47;21;18;
48893;PMS5003;34710;35.798;139.446;2022-12-10T13:19:27;32;22;
48893;PMS5003;34710;35.798;139.446;2022-12-10T13:21:59;24;22;
48893;PMS5003;34710;35.798;139.446;2022-12-10T13:25:02;23;22;
48893;PMS5003;34710;35.798;139.446;2022-12-10T13:27:38;38;24;
48893;PMS5003;34710;35.798;139.446;2022-12-10T13:30:38;24;23;
48893;PMS5003;34710;35.798;139.446;2022-12-10T13:33:17;28;25;
48893;PMS5003;34710;35.798;139.446;2022-12-10T13:35:54;34;29;
48893;PMS5003;34710;35.798;139.446;2022-12-10T13:38:27;52;38;
48893;PMS5003;34710;35.798;139.446;2022-12-10T13:40:57;33;30;
48893;PMS5003;34710;35.798;139.446;2022-12-10T13:43:35;37;32;
48893;PMS5003;34710;35.798;139.446;2022-12-10T13:46:23;44;33;
48893;PMS5003;34710;35.798;139.446;2022-12-10T13:48:53;40;27;
48893;PMS5003;34710;35.798;139.446;2022-12-10T13:51:26;31;27;
48893;PMS5003;34710;35.798;139.446;2022-12-10T13:54:26;34;22;
48893;PMS5003;34710;35.798;139.446;2022-12-10T13:57:15;31;27;
48893;PMS5003;34710;35.798;139.446;2022-12-10T13:59:56;31;27;
48893;PMS5003;34710;35.798;139.446;2022-12-10T14:02:44;44;34;
48893;PMS5003;34710;35.798;139.446;2022-12-10T14:05:30;42;33;
48893;PMS5003;34710;35.798;139.446;2022-12-10T14:08:11;31;28;
48893;PMS5003;34710;35.798;139.446;2022-12-10T14:10:44;43;32;
48893;PMS5003;34710;35.798;139.446;2022-12-10T14:13:15;44;31;
48893;PMS5003;34710;35.798;139.446;2022-12-10T14:15:50;33;30;
48893;PMS5003;34710;35.798;139.446;2022-12-10T14:18:22;35;32;
48893;PMS5003;34710;35.798;139.446;2022-12-10T14:20:55;37;34;
48893;PMS5003;34710;35.798;139.446;2022-12-10T14:23:26;60;48;
48893;PMS5003;34710;35.798;139.446;2022-12-10T14:25:57;52;48;
48893;PMS5003;34710;35.798;139.446;2022-12-10T14:28:29;56;47;
48893;PMS5003;34710;35.798;139.446;2022-12-10T14:30:59;38;37;
48893;PMS5003;34710;35.798;139.446;2022-12-10T14:33:29;52;42;
48893;PMS5003;34710;35.798;139.446;2022-12-10T14:35:58;64;48;
48893;PMS5003;34710;35.798;139.446;2022-12-10T14:38:29;51;41;
48893;PMS5003;34710;35.798;139.446;2022-12-10T14:41:01;46;40;
48893;PMS5003;34710;35.798;139.446;2022-12-10T14:43:32;27;26;
48893;PMS5003;34710;35.798;139.446;2022-12-10T14:46:06;23;19;
48893;PMS5003;34710;35.798;139.446;2022-12-10T14:48:44;26;25;
48893;PMS5003;34710;35.798;139.446;2022-12-10T14:51:13;31;27;
48893;PMS5003;34710;35.798;139.446;2022-12-10T14:53:44;24;20;
48893;PMS5003;34710;35.798;139.446;2022-12-10T14:56:16;21;20;
48893;PMS5003;34710;35.798;139.446;2022-12-10T14:58:52;24;22;
48893;PMS5003;34710;35.798;139.446;2022-12-10T15:01:29;27;20;
48893;PMS5003;34710;35.798;139.446;2022-12-10T15:04:01;24;24;
48893;PMS5003;34710;35.798;139.446;2022-12-10T15:06:33;44;29;
48893;PMS5003;34710;35.798;139.446;2022-12-10T15:09:04;36;31;
48893;PMS5003;34710;35.798;139.446;2022-12-10T15:11:40;43;38;
48893;PMS5003;34710;35.798;139.446;2022-12-10T15:14:13;46;41;
48893;PMS5003;34710;35.798;139.446;2022-12-10T15:16:47;42;41;
48893;PMS5003;34710;35.798;139.446;2022-12-10T15:19:17;42;38;
48893;PMS5003;34710;35.798;139.446;2022-12-10T15:21:49;55;39;
48893;PMS5003;34710;35.798;139.446;2022-12-10T15:24:20;59;45;
48893;PMS5003;34710;35.798;139.446;2022-12-10T15:26:53;52;45;
48893;PMS5003;34710;35.798;139.446;2022-12-10T15:29:31;62;48;
48893;PMS5003;34710;35.798;139.446;2022-12-10T15:32:04;58;43;
48893;PMS5003;34710;35.798;139.446;2022-12-10T15:34:39;52;46;
48893;PMS5003;34710;35.798;139.446;2022-12-10T15:37:16;60;46;
48893;PMS5003;34710;35.798;139.446;2022-12-10T15:39:50;57;45;
48893;PMS5003;34710;35.798;139.446;2022-12-10T15:42:35;55;49;
48893;PMS5003;34710;35.798;139.446;2022-12-10T15:45:12;58;45;
48893;PMS5003;34710;35.798;139.446;2022-12-10T15:47:47;61;47;
48893;PMS5003;34710;35.798;139.446;2022-12-10T15:50:16;59;46;
48893;PMS5003;34710;35.798;139.446;2022-12-10T15:52:47;63;49;
48893;PMS5003;34710;35.798;139.446;2022-12-10T15:55:17;44;44;
48893;PMS5003;34710;35.798;139.446;2022-12-10T15:57:47;61;44;
48893;PMS5003;34710;35.798;139.446;2022-12-10T16:00:18;54;39;
48893;PMS5003;34710;35.798;139.446;2022-12-10T16:02:49;59;45;
48893;PMS5003;34710;35.798;139.446;2022-12-10T16:05:22;46;43;
48893;PMS5003;34710;35.798;139.446;2022-12-10T16:07:54;55;39;
48893;PMS5003;34710;35.798;139.446;2022-12-10T16:10:27;46;39;
48893;PMS5003;34710;35.798;139.446;2022-12-10T16:12:58;55;41;
48893;PMS5003;34710;35.798;139.446;2022-12-10T16:15:30;51;38;
48893;PMS5003;34710;35.798;139.446;2022-12-10T16:18:02;52;43;
48893;PMS5003;34710;35.798;139.446;2022-12-10T16:20:31;48;35;
48893;PMS5003;34710;35.798;139.446;2022-12-10T16:23:00;44;38;
48893;PMS5003;34710;35.798;139.446;2022-12-10T16:25:31;54;37;
48893;PMS5003;34710;35.798;139.446;2022-12-10T16:28:00;54;36;
48893;PMS5003;34710;35.798;139.446;2022-12-10T16:30:33;46;35;
48893;PMS5003;34710;35.798;139.446;2022-12-10T16:33:04;46;33;